createdAt,value
2017-03-14T00:08:19.498Z,45
2017-03-14T00:18:30.833Z,45
2017-03-14T00:28:42.129Z,45
2017-03-14T00:38:53.493Z,45
2017-03-14T00:49:04.898Z,45
2017-03-14T00:59:16.274Z,45
2017-03-14T01:09:27.641Z,45
2017-03-14T01:19:39.030Z,45
2017-03-14T01:29:50.473Z,45
2017-03-14T01:40:01.918Z,45
2017-03-14T01:50:13.341Z,45
2017-03-14T02:00:24.736Z,45
2017-03-14T02:10:36.130Z,45
2017-03-14T02:20:47.556Z,45
2017-03-14T02:30:59.027Z,45
2017-03-14T02:41:10.494Z,45
2017-03-14T02:51:21.945Z,45
2017-03-14T03:01:33.464Z,45
2017-03-14T03:11:44.957Z,45
2017-03-14T03:21:56.498Z,45
2017-03-14T03:32:08.010Z,45
2017-03-14T03:42:19.589Z,45
2017-03-14T03:52:31.181Z,45
2017-03-14T04:02:42.824Z,45
2017-03-14T04:12:54.433Z,45
2017-03-14T04:23:05.989Z,45
2017-03-14T04:33:17.492Z,45
2017-03-14T04:43:29.050Z,45
2017-03-14T04:53:40.626Z,45
2017-03-14T05:03:52.189Z,45
2017-03-14T05:14:03.719Z,45
2017-03-14T05:24:15.262Z,45
2017-03-14T05:34:26.830Z,45
2017-03-14T05:44:38.386Z,45
2017-03-14T05:54:49.992Z,45
2017-03-14T06:05:01.578Z,45
2017-03-14T06:15:13.150Z,45
2017-03-14T06:25:24.632Z,45
2017-03-14T06:35:36.093Z,45
2017-03-14T06:45:47.504Z,45
2017-03-14T06:55:58.866Z,45
2017-03-14T07:06:10.129Z,5
2017-03-14T07:16:21.433Z,45
2017-03-14T07:26:32.642Z,5.5
2017-03-14T07:36:43.700Z,6
2017-03-14T07:46:54.466Z,6
2017-03-14T07:57:05.300Z,6.1
2017-03-14T08:07:16.204Z,6.2
2017-03-14T08:17:27.069Z,6.4
2017-03-14T08:27:37.856Z,6.6
2017-03-14T08:37:48.503Z,6.7
2017-03-14T08:47:59.125Z,6.9
2017-03-14T08:58:09.729Z,7.1
2017-03-14T09:08:20.350Z,7.4
2017-03-14T09:18:30.889Z,7.5
2017-03-14T09:28:41.364Z,7.8
2017-03-14T09:38:51.724Z,8.2
2017-03-14T09:49:01.868Z,9
2017-03-14T09:59:11.709Z,9.8
2017-03-14T10:09:21.089Z,10.4
2017-03-14T10:19:30.394Z,10.1
2017-03-14T10:29:39.714Z,10.6
2017-03-14T10:39:48.949Z,10.9
2017-03-14T10:49:58.192Z,11.3
2017-03-14T11:00:07.387Z,11.6
2017-03-14T11:10:16.607Z,12.5
2017-03-14T11:20:25.774Z,12.2
2017-03-14T11:30:34.871Z,13
2017-03-14T11:40:43.953Z,12.7
2017-03-14T11:50:53.088Z,13.1
2017-03-14T12:01:02.126Z,13.1
2017-03-14T12:11:11.257Z,13.2
2017-03-14T12:21:20.399Z,13.5
2017-03-14T12:31:29.508Z,13.5
2017-03-14T12:41:38.641Z,13.6
2017-03-14T12:51:47.867Z,13.5
2017-03-14T13:01:57.075Z,14.2
2017-03-14T13:12:06.182Z,13.8
2017-03-14T13:22:15.237Z,14.2
2017-03-14T13:32:24.275Z,14.3
2017-03-14T13:42:33.271Z,14.4
2017-03-14T13:52:42.242Z,14.4
2017-03-14T14:02:51.095Z,14.5
2017-03-14T14:12:59.891Z,14.7
2017-03-14T14:23:08.668Z,14.2
2017-03-14T14:33:17.655Z,14.4
2017-03-14T14:43:26.721Z,14.5
2017-03-14T14:53:35.888Z,14.1
2017-03-14T15:03:45.210Z,14.1
2017-03-14T15:13:54.594Z,14
2017-03-14T15:24:04.082Z,14.2
2017-03-14T15:34:13.584Z,14.2
2017-03-14T15:44:23.117Z,14.2
2017-03-14T15:54:32.700Z,14.1
2017-03-14T16:04:42.417Z,14.1
2017-03-14T16:14:52.162Z,13.9
2017-03-14T16:25:01.953Z,13.9
2017-03-14T16:35:11.782Z,13.7
2017-03-14T16:45:21.642Z,13.7
2017-03-14T16:55:31.594Z,13.6
2017-03-14T17:05:41.605Z,13.5
2017-03-14T17:15:51.676Z,13.3
2017-03-14T17:26:01.792Z,13.1
2017-03-14T17:36:11.946Z,12.9
2017-03-14T17:46:22.174Z,12.9
2017-03-14T17:56:32.422Z,12.8
2017-03-14T18:06:42.606Z,13
2017-03-14T18:16:52.793Z,12.9
2017-03-14T18:27:03.000Z,12.8
2017-03-14T18:37:13.234Z,12.8
2017-03-14T18:47:23.481Z,12.6
2017-03-14T18:57:33.821Z,12.4
2017-03-14T19:07:44.173Z,12.2
2017-03-14T19:17:54.629Z,11.9
2017-03-14T19:28:05.082Z,11.6
2017-03-14T19:38:15.594Z,11.4
2017-03-14T19:48:26.134Z,11
2017-03-14T19:58:36.689Z,10.3
2017-03-14T20:08:47.284Z,10.1
2017-03-14T20:18:57.918Z,9.9
2017-03-14T20:29:08.564Z,9.6
2017-03-14T20:39:19.223Z,9.6
2017-03-14T20:49:29.937Z,9.5
2017-03-14T20:59:40.744Z,9.5
2017-03-14T21:09:51.511Z,9.6
2017-03-14T21:20:02.324Z,9.5
2017-03-14T21:30:13.141Z,9.4
2017-03-14T21:40:23.955Z,9.4
2017-03-14T21:50:34.807Z,9.2
2017-03-14T22:00:45.587Z,9.3
2017-03-14T22:10:56.356Z,9.1
2017-03-14T22:21:07.087Z,9.2
2017-03-14T22:31:17.870Z,9.1
2017-03-14T22:41:28.634Z,9.1
2017-03-14T22:51:39.395Z,8.9
2017-03-14T23:01:50.202Z,8.6
2017-03-14T23:12:01.051Z,8.6
2017-03-14T23:22:11.880Z,8.6
2017-03-14T23:32:22.745Z,8.6
2017-03-14T23:42:33.556Z,8.5
2017-03-14T23:52:44.367Z,8.6
